sensor_id;sensor_type;location;lat;lon;timestamp;P1;durP1;ratioP1;P2;durP2;ratioP2
2486;SDS011;1254;49.144;8.212;2023-05-23T00:01:31;33.00;;;25.13;;
2486;SDS011;1254;49.144;8.212;2023-05-23T00:04:03;30.00;;;25.40;;
2486;SDS011;1254;49.144;8.212;2023-05-23T00:06:33;34.60;;;26.70;;
2486;SDS011;1254;49.144;8.212;2023-05-23T00:09:01;33.40;;;26.73;;
2486;SDS011;1254;49.144;8.212;2023-05-23T00:11:29;39.90;;;26.63;;
2486;SDS011;1254;49.144;8.212;2023-05-23T00:13:57;32.23;;;28.00;;
2486;SDS011;1254;49.144;8.212;2023-05-23T00:16:27;42.60;;;29.00;;
2486;SDS011;1254;49.144;8.212;2023-05-23T00:18:55;42.20;;;32.03;;
2486;SDS011;1254;49.144;8.212;2023-05-23T00:21:24;42.07;;;32.47;;
2486;SDS011;1254;49.144;8.212;2023-05-23T00:23:53;48.10;;;36.37;;
2486;SDS011;1254;49.144;8.212;2023-05-23T00:26:23;49.30;;;35.77;;
2486;SDS011;1254;49.144;8.212;2023-05-23T00:28:55;50.60;;;34.13;;
2486;SDS011;1254;49.144;8.212;2023-05-23T00:31:24;46.03;;;35.70;;
2486;SDS011;1254;49.144;8.212;2023-05-23T00:33:52;54.33;;;36.67;;
2486;SDS011;1254;49.144;8.212;2023-05-23T00:36:21;59.70;;;35.93;;
2486;SDS011;1254;49.144;8.212;2023-05-23T00:38:49;47.20;;;34.90;;
2486;SDS011;1254;49.144;8.212;2023-05-23T00:41:19;41.87;;;33.00;;
2486;SDS011;1254;49.144;8.212;2023-05-23T00:43:48;41.70;;;31.60;;
2486;SDS011;1254;49.144;8.212;2023-05-23T00:46:16;47.33;;;33.23;;
2486;SDS011;1254;49.144;8.212;2023-05-23T00:48:45;42.03;;;32.17;;
2486;SDS011;1254;49.144;8.212;2023-05-23T00:51:13;38.70;;;30.40;;
2486;SDS011;1254;49.144;8.212;2023-05-23T00:53:41;39.70;;;31.10;;
2486;SDS011;1254;49.144;8.212;2023-05-23T00:56:10;43.93;;;33.40;;
2486;SDS011;1254;49.144;8.212;2023-05-23T00:58:40;41.10;;;32.97;;
2486;SDS011;1254;49.144;8.212;2023-05-23T01:01:08;47.60;;;35.50;;
2486;SDS011;1254;49.144;8.212;2023-05-23T01:03:36;49.77;;;35.90;;
2486;SDS011;1254;49.144;8.212;2023-05-23T01:06:05;41.47;;;33.60;;
2486;SDS011;1254;49.144;8.212;2023-05-23T01:08:33;50.67;;;34.07;;
2486;SDS011;1254;49.144;8.212;2023-05-23T01:13:49;40.27;;;31.17;;
2486;SDS011;1254;49.144;8.212;2023-05-23T01:16:20;44.30;;;32.97;;
2486;SDS011;1254;49.144;8.212;2023-05-23T01:18:55;48.73;;;33.80;;
2486;SDS011;1254;49.144;8.212;2023-05-23T01:21:26;55.03;;;36.40;;
2486;SDS011;1254;49.144;8.212;2023-05-23T01:24:11;42.83;;;33.07;;
2486;SDS011;1254;49.144;8.212;2023-05-23T01:26:53;53.17;;;34.90;;
2486;SDS011;1254;49.144;8.212;2023-05-23T01:29:31;48.20;;;33.50;;
2486;SDS011;1254;49.144;8.212;2023-05-23T01:32:01;45.50;;;33.93;;
2486;SDS011;1254;49.144;8.212;2023-05-23T01:34:31;39.00;;;31.50;;
2486;SDS011;1254;49.144;8.212;2023-05-23T01:37:02;40.13;;;31.77;;
2486;SDS011;1254;49.144;8.212;2023-05-23T01:39:35;47.13;;;33.40;;
2486;SDS011;1254;49.144;8.212;2023-05-23T01:42:04;39.80;;;31.80;;
2486;SDS011;1254;49.144;8.212;2023-05-23T01:44:33;51.70;;;34.13;;
2486;SDS011;1254;49.144;8.212;2023-05-23T01:47:02;50.07;;;37.33;;
2486;SDS011;1254;49.144;8.212;2023-05-23T01:49:31;47.10;;;36.30;;
2486;SDS011;1254;49.144;8.212;2023-05-23T01:51:59;45.50;;;35.40;;
2486;SDS011;1254;49.144;8.212;2023-05-23T01:54:28;48.00;;;37.30;;
2486;SDS011;1254;49.144;8.212;2023-05-23T01:56:57;53.23;;;38.20;;
2486;SDS011;1254;49.144;8.212;2023-05-23T01:59:26;51.40;;;37.67;;
2486;SDS011;1254;49.144;8.212;2023-05-23T02:01:57;52.70;;;37.43;;
2486;SDS011;1254;49.144;8.212;2023-05-23T02:04:26;54.60;;;39.40;;
2486;SDS011;1254;49.144;8.212;2023-05-23T02:06:54;46.77;;;36.57;;
2486;SDS011;1254;49.144;8.212;2023-05-23T02:09:23;44.93;;;34.50;;
2486;SDS011;1254;49.144;8.212;2023-05-23T02:11:51;53.20;;;37.90;;
2486;SDS011;1254;49.144;8.212;2023-05-23T02:14:19;46.63;;;34.37;;
2486;SDS011;1254;49.144;8.212;2023-05-23T02:16:49;48.67;;;35.70;;
2486;SDS011;1254;49.144;8.212;2023-05-23T02:19:20;46.00;;;34.40;;
2486;SDS011;1254;49.144;8.212;2023-05-23T02:21:49;46.00;;;35.10;;
2486;SDS011;1254;49.144;8.212;2023-05-23T02:24:17;52.60;;;37.67;;
2486;SDS011;1254;49.144;8.212;2023-05-23T02:26:46;48.80;;;38.53;;
2486;SDS011;1254;49.144;8.212;2023-05-23T02:29:14;51.13;;;37.87;;
2486;SDS011;1254;49.144;8.212;2023-05-23T02:31:42;58.20;;;40.80;;
2486;SDS011;1254;49.144;8.212;2023-05-23T02:34:11;51.33;;;38.63;;
2486;SDS011;1254;49.144;8.212;2023-05-23T02:36:40;49.73;;;37.57;;
2486;SDS011;1254;49.144;8.212;2023-05-23T02:39:09;50.27;;;39.50;;
2486;SDS011;1254;49.144;8.212;2023-05-23T02:41:38;47.00;;;34.97;;
2486;SDS011;1254;49.144;8.212;2023-05-23T02:44:06;45.20;;;37.07;;
2486;SDS011;1254;49.144;8.212;2023-05-23T02:46:34;49.77;;;37.70;;
2486;SDS011;1254;49.144;8.212;2023-05-23T02:49:03;45.30;;;35.07;;
2486;SDS011;1254;49.144;8.212;2023-05-23T02:51:32;46.33;;;36.37;;
2486;SDS011;1254;49.144;8.212;2023-05-23T02:54:02;41.90;;;34.33;;
2486;SDS011;1254;49.144;8.212;2023-05-23T02:56:34;48.07;;;36.87;;
2486;SDS011;1254;49.144;8.212;2023-05-23T02:59:02;49.10;;;36.40;;
2486;SDS011;1254;49.144;8.212;2023-05-23T03:01:31;46.30;;;35.20;;
2486;SDS011;1254;49.144;8.212;2023-05-23T03:03:59;40.80;;;33.40;;
2486;SDS011;1254;49.144;8.212;2023-05-23T03:08:30;47.43;;;35.07;;
2486;SDS011;1254;49.144;8.212;2023-05-23T03:10:58;50.23;;;35.83;;
2486;SDS011;1254;49.144;8.212;2023-05-23T03:13:27;42.10;;;33.90;;
2486;SDS011;1254;49.144;8.212;2023-05-23T03:15:55;50.70;;;34.40;;
2486;SDS011;1254;49.144;8.212;2023-05-23T03:18:23;46.43;;;36.53;;
2486;SDS011;1254;49.144;8.212;2023-05-23T03:20:51;48.60;;;36.37;;
2486;SDS011;1254;49.144;8.212;2023-05-23T03:23:22;39.90;;;33.80;;
2486;SDS011;1254;49.144;8.212;2023-05-23T03:25:52;44.40;;;34.47;;
2486;SDS011;1254;49.144;8.212;2023-05-23T03:28:20;42.90;;;33.47;;
2486;SDS011;1254;49.144;8.212;2023-05-23T03:30:48;38.57;;;33.37;;
2486;SDS011;1254;49.144;8.212;2023-05-23T03:33:16;38.47;;;32.00;;
2486;SDS011;1254;49.144;8.212;2023-05-23T03:35:46;42.03;;;32.50;;
2486;SDS011;1254;49.144;8.212;2023-05-23T03:38:14;37.90;;;32.13;;
2486;SDS011;1254;49.144;8.212;2023-05-23T03:40:42;37.30;;;30.73;;
2486;SDS011;1254;49.144;8.212;2023-05-23T03:43:12;34.87;;;28.93;;
2486;SDS011;1254;49.144;8.212;2023-05-23T03:45:42;32.40;;;27.73;;
2486;SDS011;1254;49.144;8.212;2023-05-23T03:48:15;35.43;;;30.50;;
2486;SDS011;1254;49.144;8.212;2023-05-23T03:50:43;41.50;;;30.80;;
2486;SDS011;1254;49.144;8.212;2023-05-23T03:53:12;44.27;;;31.90;;
2486;SDS011;1254;49.144;8.212;2023-05-23T03:55:40;37.47;;;31.10;;
2486;SDS011;1254;49.144;8.212;2023-05-23T03:58:09;39.67;;;33.13;;
2486;SDS011;1254;49.144;8.212;2023-05-23T04:00:39;43.20;;;35.90;;
2486;SDS011;1254;49.144;8.212;2023-05-23T04:03:08;40.10;;;31.93;;
2486;SDS011;1254;49.144;8.212;2023-05-23T04:05:40;47.87;;;33.57;;
2486;SDS011;1254;49.144;8.212;2023-05-23T04:08:09;47.00;;;34.90;;
2486;SDS011;1254;49.144;8.212;2023-05-23T04:10:38;39.80;;;32.80;;
2486;SDS011;1254;49.144;8.212;2023-05-23T04:13:06;42.00;;;34.23;;
2486;SDS011;1254;49.144;8.212;2023-05-23T04:15:34;39.03;;;32.27;;
2486;SDS011;1254;49.144;8.212;2023-05-23T04:18:07;40.53;;;33.87;;
2486;SDS011;1254;49.144;8.212;2023-05-23T04:20:37;41.23;;;33.73;;
2486;SDS011;1254;49.144;8.212;2023-05-23T04:23:05;44.90;;;32.83;;
2486;SDS011;1254;49.144;8.212;2023-05-23T04:25:36;36.47;;;31.63;;
2486;SDS011;1254;49.144;8.212;2023-05-23T04:28:12;44.10;;;32.83;;
2486;SDS011;1254;49.144;8.212;2023-05-23T04:30:42;43.20;;;34.17;;
2486;SDS011;1254;49.144;8.212;2023-05-23T04:33:13;48.20;;;37.90;;
2486;SDS011;1254;49.144;8.212;2023-05-23T04:35:42;44.97;;;37.07;;
2486;SDS011;1254;49.144;8.212;2023-05-23T04:38:11;47.40;;;37.70;;
2486;SDS011;1254;49.144;8.212;2023-05-23T04:40:39;46.43;;;36.63;;
2486;SDS011;1254;49.144;8.212;2023-05-23T04:43:34;45.70;;;38.40;;
2486;SDS011;1254;49.144;8.212;2023-05-23T04:46:14;44.40;;;35.57;;
2486;SDS011;1254;49.144;8.212;2023-05-23T04:48:46;41.60;;;36.00;;
2486;SDS011;1254;49.144;8.212;2023-05-23T04:51:15;39.53;;;34.20;;
2486;SDS011;1254;49.144;8.212;2023-05-23T04:53:53;42.30;;;35.60;;
2486;SDS011;1254;49.144;8.212;2023-05-23T04:56:21;45.40;;;35.70;;
2486;SDS011;1254;49.144;8.212;2023-05-23T04:58:52;39.03;;;34.00;;
2486;SDS011;1254;49.144;8.212;2023-05-23T05:01:21;44.30;;;35.00;;
2486;SDS011;1254;49.144;8.212;2023-05-23T05:03:51;38.70;;;34.10;;
2486;SDS011;1254;49.144;8.212;2023-05-23T05:06:19;39.53;;;33.00;;
2486;SDS011;1254;49.144;8.212;2023-05-23T05:08:48;37.47;;;31.17;;
2486;SDS011;1254;49.144;8.212;2023-05-23T05:11:16;34.37;;;30.67;;
2486;SDS011;1254;49.144;8.212;2023-05-23T05:13:44;33.30;;;29.67;;
2486;SDS011;1254;49.144;8.212;2023-05-23T05:16:13;34.50;;;30.17;;
2486;SDS011;1254;49.144;8.212;2023-05-23T05:18:41;37.93;;;30.60;;
2486;SDS011;1254;49.144;8.212;2023-05-23T05:21:11;32.57;;;29.13;;
2486;SDS011;1254;49.144;8.212;2023-05-23T05:23:40;34.23;;;30.60;;
2486;SDS011;1254;49.144;8.212;2023-05-23T05:26:08;44.73;;;32.57;;
2486;SDS011;1254;49.144;8.212;2023-05-23T05:28:37;35.67;;;31.80;;
2486;SDS011;1254;49.144;8.212;2023-05-23T05:31:06;41.60;;;33.50;;
2486;SDS011;1254;49.144;8.212;2023-05-23T05:33:36;37.10;;;32.00;;
2486;SDS011;1254;49.144;8.212;2023-05-23T05:36:13;37.17;;;32.47;;
2486;SDS011;1254;49.144;8.212;2023-05-23T05:38:42;42.03;;;35.50;;
2486;SDS011;1254;49.144;8.212;2023-05-23T05:41:11;37.40;;;33.47;;
2486;SDS011;1254;49.144;8.212;2023-05-23T05:43:46;36.47;;;32.67;;
2486;SDS011;1254;49.144;8.212;2023-05-23T05:46:14;36.03;;;30.80;;
2486;SDS011;1254;49.144;8.212;2023-05-23T05:48:42;31.70;;;28.60;;
2486;SDS011;1254;49.144;8.212;2023-05-23T05:51:14;29.90;;;26.67;;
2486;SDS011;1254;49.144;8.212;2023-05-23T05:53:42;30.63;;;27.37;;
2486;SDS011;1254;49.144;8.212;2023-05-23T05:56:11;33.40;;;27.50;;
2486;SDS011;1254;49.144;8.212;2023-05-23T05:58:39;27.73;;;24.80;;
2486;SDS011;1254;49.144;8.212;2023-05-23T06:01:11;29.70;;;26.60;;
2486;SDS011;1254;49.144;8.212;2023-05-23T06:03:39;31.90;;;26.90;;
2486;SDS011;1254;49.144;8.212;2023-05-23T06:06:08;28.60;;;25.60;;
2486;SDS011;1254;49.144;8.212;2023-05-23T06:08:40;29.43;;;26.40;;
2486;SDS011;1254;49.144;8.212;2023-05-23T06:11:11;31.33;;;28.07;;
2486;SDS011;1254;49.144;8.212;2023-05-23T06:13:39;29.23;;;24.90;;
2486;SDS011;1254;49.144;8.212;2023-05-23T06:16:08;30.03;;;26.30;;
2486;SDS011;1254;49.144;8.212;2023-05-23T06:18:36;25.67;;;22.17;;
2486;SDS011;1254;49.144;8.212;2023-05-23T06:21:05;27.70;;;21.00;;
2486;SDS011;1254;49.144;8.212;2023-05-23T06:23:35;21.57;;;19.40;;
2486;SDS011;1254;49.144;8.212;2023-05-23T06:26:05;22.20;;;19.40;;
2486;SDS011;1254;49.144;8.212;2023-05-23T06:28:36;21.80;;;19.37;;
2486;SDS011;1254;49.144;8.212;2023-05-23T06:31:06;22.70;;;19.97;;
2486;SDS011;1254;49.144;8.212;2023-05-23T06:33:36;21.33;;;19.07;;
2486;SDS011;1254;49.144;8.212;2023-05-23T06:36:04;21.70;;;16.23;;
2486;SDS011;1254;49.144;8.212;2023-05-23T06:38:32;21.70;;;16.47;;
2486;SDS011;1254;49.144;8.212;2023-05-23T06:41:00;17.07;;;15.37;;
2486;SDS011;1254;49.144;8.212;2023-05-23T06:43:33;16.80;;;15.20;;
2486;SDS011;1254;49.144;8.212;2023-05-23T06:46:21;15.90;;;14.40;;
2486;SDS011;1254;49.144;8.212;2023-05-23T06:48:50;15.37;;;13.93;;
2486;SDS011;1254;49.144;8.212;2023-05-23T06:51:18;13.23;;;11.93;;
2486;SDS011;1254;49.144;8.212;2023-05-23T06:53:47;12.43;;;10.93;;
2486;SDS011;1254;49.144;8.212;2023-05-23T06:56:15;10.77;;;9.63;;
2486;SDS011;1254;49.144;8.212;2023-05-23T06:58:54;14.20;;;9.93;;
2486;SDS011;1254;49.144;8.212;2023-05-23T07:01:22;12.30;;;11.10;;
2486;SDS011;1254;49.144;8.212;2023-05-23T07:03:50;11.20;;;9.93;;
2486;SDS011;1254;49.144;8.212;2023-05-23T07:06:19;10.13;;;9.33;;
2486;SDS011;1254;49.144;8.212;2023-05-23T07:08:47;10.50;;;9.20;;
2486;SDS011;1254;49.144;8.212;2023-05-23T07:11:15;11.80;;;10.70;;
2486;SDS011;1254;49.144;8.212;2023-05-23T07:13:49;10.40;;;9.50;;
2486;SDS011;1254;49.144;8.212;2023-05-23T07:16:28;10.83;;;9.83;;
2486;SDS011;1254;49.144;8.212;2023-05-23T07:19:06;11.13;;;10.00;;
2486;SDS011;1254;49.144;8.212;2023-05-23T07:21:41;11.67;;;10.53;;
2486;SDS011;1254;49.144;8.212;2023-05-23T07:24:11;12.33;;;9.67;;
2486;SDS011;1254;49.144;8.212;2023-05-23T07:26:40;11.20;;;10.17;;
2486;SDS011;1254;49.144;8.212;2023-05-23T07:29:08;9.97;;;9.03;;
2486;SDS011;1254;49.144;8.212;2023-05-23T07:31:38;12.63;;;10.00;;
2486;SDS011;1254;49.144;8.212;2023-05-23T07:34:07;14.33;;;9.10;;
2486;SDS011;1254;49.144;8.212;2023-05-23T07:36:46;10.87;;;9.87;;
2486;SDS011;1254;49.144;8.212;2023-05-23T07:39:15;9.97;;;9.17;;
2486;SDS011;1254;49.144;8.212;2023-05-23T07:41:48;14.80;;;11.60;;
2486;SDS011;1254;49.144;8.212;2023-05-23T07:44:17;11.10;;;10.00;;
2486;SDS011;1254;49.144;8.212;2023-05-23T07:46:47;12.53;;;10.60;;
2486;SDS011;1254;49.144;8.212;2023-05-23T07:49:15;15.40;;;11.57;;
2486;SDS011;1254;49.144;8.212;2023-05-23T07:51:44;13.20;;;11.90;;
2486;SDS011;1254;49.144;8.212;2023-05-23T07:54:12;12.67;;;11.50;;
2486;SDS011;1254;49.144;8.212;2023-05-23T07:56:41;18.23;;;13.03;;
2486;SDS011;1254;49.144;8.212;2023-05-23T07:59:10;14.07;;;11.80;;
2486;SDS011;1254;49.144;8.212;2023-05-23T08:01:40;17.50;;;13.60;;
2486;SDS011;1254;49.144;8.212;2023-05-23T08:04:14;15.00;;;12.47;;
2486;SDS011;1254;49.144;8.212;2023-05-23T08:06:53;14.20;;;12.80;;
2486;SDS011;1254;49.144;8.212;2023-05-23T08:09:25;15.27;;;13.67;;
2486;SDS011;1254;49.144;8.212;2023-05-23T08:11:56;13.53;;;12.20;;
2486;SDS011;1254;49.144;8.212;2023-05-23T08:14:25;13.13;;;11.80;;
2486;SDS011;1254;49.144;8.212;2023-05-23T08:17:18;11.63;;;10.00;;
2486;SDS011;1254;49.144;8.212;2023-05-23T08:19:49;9.17;;;8.47;;
2486;SDS011;1254;49.144;8.212;2023-05-23T08:22:17;11.20;;;8.70;;
2486;SDS011;1254;49.144;8.212;2023-05-23T08:24:46;10.67;;;8.40;;
2486;SDS011;1254;49.144;8.212;2023-05-23T08:27:15;9.87;;;9.07;;
2486;SDS011;1254;49.144;8.212;2023-05-23T08:29:47;8.23;;;7.57;;
2486;SDS011;1254;49.144;8.212;2023-05-23T08:32:15;8.77;;;7.97;;
2486;SDS011;1254;49.144;8.212;2023-05-23T08:34:43;8.30;;;7.70;;
2486;SDS011;1254;49.144;8.212;2023-05-23T08:37:13;9.63;;;8.83;;
2486;SDS011;1254;49.144;8.212;2023-05-23T08:39:42;8.10;;;7.50;;
2486;SDS011;1254;49.144;8.212;2023-05-23T08:42:40;8.20;;;7.40;;
2486;SDS011;1254;49.144;8.212;2023-05-23T08:45:10;7.67;;;7.07;;
2486;SDS011;1254;49.144;8.212;2023-05-23T08:47:38;6.53;;;6.03;;
2486;SDS011;1254;49.144;8.212;2023-05-23T08:50:10;7.10;;;6.60;;
2486;SDS011;1254;49.144;8.212;2023-05-23T08:52:42;11.53;;;7.90;;
2486;SDS011;1254;49.144;8.212;2023-05-23T08:55:11;13.20;;;8.43;;
2486;SDS011;1254;49.144;8.212;2023-05-23T08:57:40;8.80;;;7.90;;
2486;SDS011;1254;49.144;8.212;2023-05-23T09:00:26;7.40;;;6.87;;
2486;SDS011;1254;49.144;8.212;2023-05-23T09:02:55;5.83;;;5.43;;
2486;SDS011;1254;49.144;8.212;2023-05-23T09:05:50;6.73;;;6.23;;
2486;SDS011;1254;49.144;8.212;2023-05-23T09:08:20;7.07;;;6.57;;
2486;SDS011;1254;49.144;8.212;2023-05-23T09:10:52;6.60;;;5.97;;
2486;SDS011;1254;49.144;8.212;2023-05-23T09:13:24;6.50;;;6.00;;
2486;SDS011;1254;49.144;8.212;2023-05-23T09:16:01;6.57;;;5.90;;
2486;SDS011;1254;49.144;8.212;2023-05-23T09:18:35;6.13;;;5.70;;
2486;SDS011;1254;49.144;8.212;2023-05-23T09:21:07;6.50;;;6.00;;
2486;SDS011;1254;49.144;8.212;2023-05-23T09:23:39;5.40;;;5.03;;
2486;SDS011;1254;49.144;8.212;2023-05-23T09:26:10;6.23;;;5.83;;
2486;SDS011;1254;49.144;8.212;2023-05-23T09:28:41;6.07;;;5.67;;
2486;SDS011;1254;49.144;8.212;2023-05-23T09:31:09;5.70;;;5.30;;
2486;SDS011;1254;49.144;8.212;2023-05-23T09:33:39;5.90;;;5.50;;
2486;SDS011;1254;49.144;8.212;2023-05-23T09:36:08;7.23;;;6.60;;
2486;SDS011;1254;49.144;8.212;2023-05-23T09:38:37;6.67;;;6.17;;
2486;SDS011;1254;49.144;8.212;2023-05-23T09:41:07;6.10;;;5.70;;
2486;SDS011;1254;49.144;8.212;2023-05-23T09:43:37;5.90;;;5.50;;
2486;SDS011;1254;49.144;8.212;2023-05-23T09:46:06;7.87;;;7.10;;
2486;SDS011;1254;49.144;8.212;2023-05-23T09:48:35;6.70;;;6.23;;
2486;SDS011;1254;49.144;8.212;2023-05-23T09:51:05;6.83;;;6.43;;
2486;SDS011;1254;49.144;8.212;2023-05-23T09:53:33;7.57;;;6.97;;
2486;SDS011;1254;49.144;8.212;2023-05-23T09:56:02;8.73;;;8.03;;
2486;SDS011;1254;49.144;8.212;2023-05-23T09:58:33;8.10;;;7.47;;
2486;SDS011;1254;49.144;8.212;2023-05-23T10:01:02;8.30;;;7.80;;
2486;SDS011;1254;49.144;8.212;2023-05-23T10:03:33;8.33;;;7.83;;
2486;SDS011;1254;49.144;8.212;2023-05-23T10:06:03;8.27;;;7.67;;
2486;SDS011;1254;49.144;8.212;2023-05-23T10:08:35;7.67;;;7.00;;
2486;SDS011;1254;49.144;8.212;2023-05-23T10:14:01;7.60;;;7.00;;
2486;SDS011;1254;49.144;8.212;2023-05-23T10:16:31;8.07;;;7.40;;
2486;SDS011;1254;49.144;8.212;2023-05-23T10:19:02;7.00;;;6.60;;
2486;SDS011;1254;49.144;8.212;2023-05-23T10:21:34;12.20;;;11.40;;
2486;SDS011;1254;49.144;8.212;2023-05-23T10:24:03;8.47;;;7.80;;
2486;SDS011;1254;49.144;8.212;2023-05-23T10:26:32;7.83;;;7.43;;
2486;SDS011;1254;49.144;8.212;2023-05-23T10:29:02;7.30;;;6.90;;
2486;SDS011;1254;49.144;8.212;2023-05-23T10:31:30;8.93;;;8.33;;
2486;SDS011;1254;49.144;8.212;2023-05-23T10:34:01;8.50;;;8.00;;
2486;SDS011;1254;49.144;8.212;2023-05-23T10:36:32;7.83;;;7.03;;
2486;SDS011;1254;49.144;8.212;2023-05-23T10:39:03;8.10;;;7.70;;
2486;SDS011;1254;49.144;8.212;2023-05-23T10:41:35;7.73;;;7.30;;
2486;SDS011;1254;49.144;8.212;2023-05-23T10:44:09;7.53;;;7.00;;
2486;SDS011;1254;49.144;8.212;2023-05-23T10:46:50;7.73;;;7.40;;
2486;SDS011;1254;49.144;8.212;2023-05-23T10:49:20;7.43;;;6.83;;
2486;SDS011;1254;49.144;8.212;2023-05-23T10:51:48;6.83;;;6.53;;
2486;SDS011;1254;49.144;8.212;2023-05-23T10:54:17;6.93;;;6.63;;
2486;SDS011;1254;49.144;8.212;2023-05-23T10:56:46;6.53;;;6.23;;
2486;SDS011;1254;49.144;8.212;2023-05-23T10:59:20;7.87;;;7.43;;
2486;SDS011;1254;49.144;8.212;2023-05-23T11:01:49;7.10;;;6.80;;
2486;SDS011;1254;49.144;8.212;2023-05-23T11:04:23;7.07;;;6.70;;
2486;SDS011;1254;49.144;8.212;2023-05-23T11:06:52;7.57;;;7.27;;
2486;SDS011;1254;49.144;8.212;2023-05-23T11:09:22;7.87;;;6.80;;
2486;SDS011;1254;49.144;8.212;2023-05-23T11:11:50;7.27;;;6.97;;
2486;SDS011;1254;49.144;8.212;2023-05-23T11:14:29;7.10;;;6.60;;
2486;SDS011;1254;49.144;8.212;2023-05-23T11:16:58;7.07;;;6.77;;
2486;SDS011;1254;49.144;8.212;2023-05-23T11:19:27;7.77;;;7.37;;
2486;SDS011;1254;49.144;8.212;2023-05-23T11:21:56;7.10;;;6.80;;
2486;SDS011;1254;49.144;8.212;2023-05-23T11:27:10;6.10;;;5.80;;
2486;SDS011;1254;49.144;8.212;2023-05-23T11:29:40;7.47;;;7.03;;
2486;SDS011;1254;49.144;8.212;2023-05-23T11:32:09;7.00;;;6.70;;
2486;SDS011;1254;49.144;8.212;2023-05-23T11:34:38;8.57;;;7.97;;
2486;SDS011;1254;49.144;8.212;2023-05-23T11:37:06;7.60;;;7.30;;
2486;SDS011;1254;49.144;8.212;2023-05-23T11:39:36;7.50;;;7.10;;
2486;SDS011;1254;49.144;8.212;2023-05-23T11:42:05;6.93;;;6.63;;
2486;SDS011;1254;49.144;8.212;2023-05-23T11:44:33;7.30;;;6.90;;
2486;SDS011;1254;49.144;8.212;2023-05-23T11:47:03;7.27;;;6.97;;
2486;SDS011;1254;49.144;8.212;2023-05-23T11:49:33;7.20;;;6.90;;
2486;SDS011;1254;49.144;8.212;2023-05-23T11:52:03;6.33;;;6.13;;
2486;SDS011;1254;49.144;8.212;2023-05-23T11:54:32;7.10;;;6.80;;
2486;SDS011;1254;49.144;8.212;2023-05-23T11:57:00;7.10;;;6.70;;
2486;SDS011;1254;49.144;8.212;2023-05-23T11:59:29;7.30;;;6.60;;
2486;SDS011;1254;49.144;8.212;2023-05-23T12:01:57;8.20;;;7.80;;
2486;SDS011;1254;49.144;8.212;2023-05-23T12:04:27;7.27;;;6.87;;
2486;SDS011;1254;49.144;8.212;2023-05-23T12:06:55;7.17;;;6.87;;
2486;SDS011;1254;49.144;8.212;2023-05-23T12:09:23;8.20;;;7.60;;
2486;SDS011;1254;49.144;8.212;2023-05-23T12:11:51;6.73;;;6.53;;
2486;SDS011;1254;49.144;8.212;2023-05-23T12:14:20;7.77;;;7.33;;
2486;SDS011;1254;49.144;8.212;2023-05-23T12:16:48;8.70;;;8.20;;
2486;SDS011;1254;49.144;8.212;2023-05-23T12:19:19;8.40;;;8.00;;
2486;SDS011;1254;49.144;8.212;2023-05-23T12:21:49;8.70;;;8.20;;
2486;SDS011;1254;49.144;8.212;2023-05-23T12:24:18;8.30;;;8.00;;
2486;SDS011;1254;49.144;8.212;2023-05-23T12:26:49;9.30;;;8.73;;
2486;SDS011;1254;49.144;8.212;2023-05-23T12:29:18;10.17;;;9.00;;
2486;SDS011;1254;49.144;8.212;2023-05-23T12:31:47;9.83;;;9.33;;
2486;SDS011;1254;49.144;8.212;2023-05-23T12:34:16;9.50;;;9.07;;
2486;SDS011;1254;49.144;8.212;2023-05-23T12:36:44;10.20;;;9.70;;
2486;SDS011;1254;49.144;8.212;2023-05-23T12:39:15;9.57;;;9.07;;
2486;SDS011;1254;49.144;8.212;2023-05-23T12:41:44;9.83;;;9.33;;
2486;SDS011;1254;49.144;8.212;2023-05-23T12:44:14;11.73;;;11.20;;
2486;SDS011;1254;49.144;8.212;2023-05-23T12:46:42;10.17;;;9.67;;
2486;SDS011;1254;49.144;8.212;2023-05-23T12:49:11;10.73;;;10.13;;
2486;SDS011;1254;49.144;8.212;2023-05-23T12:51:40;10.77;;;10.27;;
2486;SDS011;1254;49.144;8.212;2023-05-23T12:54:08;10.50;;;10.00;;
2486;SDS011;1254;49.144;8.212;2023-05-23T12:56:37;11.83;;;11.23;;
2486;SDS011;1254;49.144;8.212;2023-05-23T12:59:06;11.50;;;11.00;;
2486;SDS011;1254;49.144;8.212;2023-05-23T13:01:34;14.37;;;13.57;;
2486;SDS011;1254;49.144;8.212;2023-05-23T13:04:02;13.10;;;12.50;;
2486;SDS011;1254;49.144;8.212;2023-05-23T13:06:30;12.87;;;12.37;;
2486;SDS011;1254;49.144;8.212;2023-05-23T13:08:59;12.90;;;12.30;;
2486;SDS011;1254;49.144;8.212;2023-05-23T13:11:28;13.50;;;12.90;;
2486;SDS011;1254;49.144;8.212;2023-05-23T13:13:58;12.40;;;11.80;;
2486;SDS011;1254;49.144;8.212;2023-05-23T13:16:27;14.33;;;13.53;;
2486;SDS011;1254;49.144;8.212;2023-05-23T13:18:55;14.90;;;14.20;;
2486;SDS011;1254;49.144;8.212;2023-05-23T13:21:23;13.70;;;13.10;;
2486;SDS011;1254;49.144;8.212;2023-05-23T13:23:52;13.30;;;12.50;;
2486;SDS011;1254;49.144;8.212;2023-05-23T13:26:20;12.90;;;12.30;;
2486;SDS011;1254;49.144;8.212;2023-05-23T13:28:49;13.40;;;12.70;;
2486;SDS011;1254;49.144;8.212;2023-05-23T13:31:19;13.57;;;12.97;;
2486;SDS011;1254;49.144;8.212;2023-05-23T13:33:47;13.67;;;12.97;;
2486;SDS011;1254;49.144;8.212;2023-05-23T13:36:16;13.73;;;12.83;;
2486;SDS011;1254;49.144;8.212;2023-05-23T13:38:44;13.60;;;12.90;;
2486;SDS011;1254;49.144;8.212;2023-05-23T13:41:12;13.67;;;12.97;;
2486;SDS011;1254;49.144;8.212;2023-05-23T13:43:42;14.63;;;13.80;;
2486;SDS011;1254;49.144;8.212;2023-05-23T13:46:11;14.00;;;13.30;;
2486;SDS011;1254;49.144;8.212;2023-05-23T13:48:40;13.57;;;12.87;;
2486;SDS011;1254;49.144;8.212;2023-05-23T13:51:08;14.00;;;13.20;;
2486;SDS011;1254;49.144;8.212;2023-05-23T13:53:37;15.30;;;14.40;;
2486;SDS011;1254;49.144;8.212;2023-05-23T13:56:05;15.20;;;14.30;;
2486;SDS011;1254;49.144;8.212;2023-05-23T13:58:33;14.37;;;13.67;;
2486;SDS011;1254;49.144;8.212;2023-05-23T14:01:01;15.57;;;14.77;;
2486;SDS011;1254;49.144;8.212;2023-05-23T14:03:30;14.40;;;13.60;;
2486;SDS011;1254;49.144;8.212;2023-05-23T14:06:00;14.37;;;13.53;;
2486;SDS011;1254;49.144;8.212;2023-05-23T14:08:29;14.03;;;13.33;;
2486;SDS011;1254;49.144;8.212;2023-05-23T14:10:58;13.83;;;12.93;;
2486;SDS011;1254;49.144;8.212;2023-05-23T14:13:26;12.70;;;12.10;;
2486;SDS011;1254;49.144;8.212;2023-05-23T14:15:54;13.40;;;12.60;;
2486;SDS011;1254;49.144;8.212;2023-05-23T14:18:22;13.87;;;13.07;;
2486;SDS011;1254;49.144;8.212;2023-05-23T14:20:50;13.87;;;12.83;;
2486;SDS011;1254;49.144;8.212;2023-05-23T14:23:20;13.33;;;12.27;;
2486;SDS011;1254;49.144;8.212;2023-05-23T14:25:48;13.23;;;12.10;;
2486;SDS011;1254;49.144;8.212;2023-05-23T14:28:17;13.30;;;12.50;;
2486;SDS011;1254;49.144;8.212;2023-05-23T14:30:45;13.90;;;13.07;;
2486;SDS011;1254;49.144;8.212;2023-05-23T14:33:13;13.43;;;12.63;;
2486;SDS011;1254;49.144;8.212;2023-05-23T14:35:41;13.67;;;12.87;;
2486;SDS011;1254;49.144;8.212;2023-05-23T14:38:09;14.53;;;13.60;;
2486;SDS011;1254;49.144;8.212;2023-05-23T14:40:39;14.17;;;13.10;;
2486;SDS011;1254;49.144;8.212;2023-05-23T14:43:07;13.60;;;12.80;;
2486;SDS011;1254;49.144;8.212;2023-05-23T14:45:36;14.00;;;13.10;;
2486;SDS011;1254;49.144;8.212;2023-05-23T14:48:04;13.63;;;12.63;;
2486;SDS011;1254;49.144;8.212;2023-05-23T14:50:33;12.50;;;11.90;;
2486;SDS011;1254;49.144;8.212;2023-05-23T14:53:01;12.47;;;11.77;;
2486;SDS011;1254;49.144;8.212;2023-05-23T14:55:29;12.57;;;11.87;;
2486;SDS011;1254;49.144;8.212;2023-05-23T14:57:59;12.50;;;11.80;;
2486;SDS011;1254;49.144;8.212;2023-05-23T15:00:28;12.63;;;11.73;;
2486;SDS011;1254;49.144;8.212;2023-05-23T15:02:57;12.67;;;11.77;;
2486;SDS011;1254;49.144;8.212;2023-05-23T15:05:25;13.07;;;12.17;;
2486;SDS011;1254;49.144;8.212;2023-05-23T15:07:53;13.10;;;11.97;;
2486;SDS011;1254;49.144;8.212;2023-05-23T15:10:22;13.67;;;12.47;;
2486;SDS011;1254;49.144;8.212;2023-05-23T15:12:50;13.83;;;12.83;;
2486;SDS011;1254;49.144;8.212;2023-05-23T15:15:20;13.60;;;12.60;;
2486;SDS011;1254;49.144;8.212;2023-05-23T15:17:49;32.30;;;13.20;;
2486;SDS011;1254;49.144;8.212;2023-05-23T15:20:18;13.17;;;12.20;;
2486;SDS011;1254;49.144;8.212;2023-05-23T15:22:46;13.63;;;12.70;;